OCN2B EDDF-LDDU
Flight info
| Callsign | OCN2B |
|---|---|
| Flight time | 1h 30m |
| Altitude | 37000 |
| Route | CINDY8S/18 CINDY Z74 LAMPU DCT NOMBO Y161 MAH DCT VAVOR DCT RADIZ DCT MODRO DCT DARZA DCT DEPET DCT UNIPA DCT SIPAL |
| Aircraft | A320/M-SDE3FGHIRWY/LB1 |
Departure
| Time | 2026-05-04 12:05 |
|---|---|
| Airport | Frankfurt Main Airport (EDDF) |
Arrival
| Time | 2026-05-04 13:35 |
|---|---|
| Airport | Dubrovnik Ruđer Bošković Airport (LDDU) |
| Time | Latitude | Longitude | Altitude | Speed | Heading |
|---|---|---|---|---|---|
| 2026-05-04 10:54 | 50.04380 | 8.56970 | 360 ft | 0 kts | 160° |
| 2026-05-04 11:57 | 50.04347 | 8.56988 | 361 ft | 10 kts | 165° |
| 2026-05-04 11:58 | 50.04284 | 8.56938 | 359 ft | 15 kts | 237° |
| 2026-05-04 11:58 | 50.04246 | 8.56785 | 361 ft | 16 kts | 250° |
| 2026-05-04 11:58 | 50.04204 | 8.56604 | 359 ft | 19 kts | 250° |
| 2026-05-04 11:58 | 50.04153 | 8.56394 | 362 ft | 22 kts | 249° |
| 2026-05-04 11:59 | 50.04099 | 8.56171 | 352 ft | 23 kts | 249° |
| 2026-05-04 11:59 | 50.04041 | 8.55941 | 352 ft | 23 kts | 249° |
| 2026-05-04 11:59 | 50.03985 | 8.55707 | 349 ft | 24 kts | 251° |
| 2026-05-04 11:59 | 50.03931 | 8.55466 | 356 ft | 23 kts | 251° |
| 2026-05-04 12:00 | 50.03874 | 8.55225 | 357 ft | 24 kts | 250° |
| 2026-05-04 12:00 | 50.03815 | 8.54981 | 352 ft | 25 kts | 249° |
| 2026-05-04 12:00 | 50.03755 | 8.54728 | 352 ft | 25 kts | 250° |
| 2026-05-04 12:00 | 50.03694 | 8.54468 | 346 ft | 26 kts | 250° |
| 2026-05-04 12:01 | 50.03631 | 8.54202 | 345 ft | 26 kts | 250° |
| 2026-05-04 12:01 | 50.03569 | 8.53939 | 339 ft | 26 kts | 250° |
| 2026-05-04 12:02 | 50.03165 | 8.52597 | 334 ft | 13 kts | 183° |
| 2026-05-04 12:03 | 50.03157 | 8.52597 | 335 ft | 0 kts | 181° |
| 2026-05-04 12:04 | 50.02993 | 8.52597 | 335 ft | 60 kts | 179° |
| 2026-05-04 12:04 | 50.02353 | 8.52603 | 334 ft | 121 kts | 180° |
| 2026-05-04 12:04 | 50.01340 | 8.52612 | 366 ft | 166 kts | 181° |
| 2026-05-04 12:05 | 50.00208 | 8.52686 | 1038 ft | 162 kts | 178° |
| 2026-05-04 12:05 | 49.99070 | 8.52720 | 1754 ft | 166 kts | 182° |
| 2026-05-04 12:05 | 49.97842 | 8.52724 | 2179 ft | 188 kts | 178° |
| 2026-05-04 12:05 | 49.96548 | 8.53465 | 2477 ft | 215 kts | 143° |
| 2026-05-04 12:06 | 49.95621 | 8.55411 | 2926 ft | 234 kts | 122° |
| 2026-05-04 12:06 | 49.94826 | 8.57619 | 3761 ft | 235 kts | 121° |
| 2026-05-04 12:06 | 49.94147 | 8.59954 | 4505 ft | 243 kts | 104° |
| 2026-05-04 12:06 | 49.93954 | 8.62683 | 4948 ft | 267 kts | 94° |
| 2026-05-04 12:07 | 49.93835 | 8.65655 | 5535 ft | 281 kts | 98° |
| 2026-05-04 12:07 | 49.93308 | 8.68586 | 6372 ft | 283 kts | 118° |
| 2026-05-04 12:07 | 49.92199 | 8.71092 | 7210 ft | 282 kts | 137° |
| 2026-05-04 12:07 | 49.90671 | 8.72978 | 8079 ft | 281 kts | 147° |
| 2026-05-04 12:08 | 49.89113 | 8.74827 | 8954 ft | 284 kts | 139° |
| 2026-05-04 12:08 | 49.87837 | 8.77198 | 9826 ft | 289 kts | 125° |
| 2026-05-04 12:08 | 49.86831 | 8.79945 | 10469 ft | 301 kts | 122° |
| 2026-05-04 12:08 | 49.85771 | 8.82877 | 10708 ft | 323 kts | 122° |
| 2026-05-04 12:09 | 49.84652 | 8.85973 | 11272 ft | 333 kts | 122° |
| 2026-05-04 12:09 | 49.83515 | 8.89117 | 11985 ft | 337 kts | 122° |
| 2026-05-04 12:09 | 49.82364 | 8.92304 | 12705 ft | 341 kts | 121° |
| 2026-05-04 12:09 | 49.81196 | 8.95522 | 13421 ft | 345 kts | 122° |
| 2026-05-04 12:10 | 49.80008 | 8.98779 | 14064 ft | 349 kts | 122° |
| 2026-05-04 12:10 | 49.78805 | 9.02062 | 14668 ft | 353 kts | 122° |
| 2026-05-04 12:10 | 49.77587 | 9.05369 | 15310 ft | 355 kts | 122° |
| 2026-05-04 12:10 | 49.76427 | 9.08781 | 15883 ft | 362 kts | 115° |
| 2026-05-04 12:11 | 49.75653 | 9.12529 | 16457 ft | 370 kts | 106° |
| 2026-05-04 12:11 | 49.74942 | 9.16358 | 17024 ft | 371 kts | 114° |
| 2026-05-04 12:11 | 49.73800 | 9.19925 | 17612 ft | 371 kts | 126° |
| 2026-05-04 12:11 | 49.72240 | 9.23093 | 18198 ft | 372 kts | 135° |
| 2026-05-04 12:12 | 49.70523 | 9.26101 | 18738 ft | 375 kts | 135° |
| 2026-05-04 12:12 | 49.68797 | 9.29138 | 19269 ft | 377 kts | 135° |
| 2026-05-04 12:12 | 49.67060 | 9.32194 | 19782 ft | 381 kts | 135° |
| 2026-05-04 12:12 | 49.65306 | 9.35278 | 20292 ft | 384 kts | 135° |
| 2026-05-04 12:13 | 49.63540 | 9.38389 | 20791 ft | 387 kts | 135° |
| 2026-05-04 12:14 | 49.47727 | 9.54332 | 24051 ft | 398 kts | 152° |
| 2026-05-04 12:15 | 49.45340 | 9.56506 | 24459 ft | 400 kts | 153° |
| 2026-05-04 12:15 | 49.42938 | 9.58689 | 24857 ft | 402 kts | 153° |
| 2026-05-04 12:15 | 49.40524 | 9.60878 | 25248 ft | 404 kts | 153° |
| 2026-05-04 12:15 | 49.38130 | 9.63045 | 25640 ft | 406 kts | 153° |
| 2026-05-04 12:16 | 49.35687 | 9.65260 | 26032 ft | 409 kts | 152° |
| 2026-05-04 12:16 | 49.33367 | 9.67838 | 26385 ft | 416 kts | 142° |
| 2026-05-04 12:16 | 49.31288 | 9.70946 | 26751 ft | 420 kts | 139° |
| 2026-05-04 12:16 | 49.29228 | 9.74122 | 27114 ft | 422 kts | 139° |
| 2026-05-04 12:17 | 49.27147 | 9.77309 | 27467 ft | 424 kts | 139° |
| 2026-05-04 12:17 | 49.25050 | 9.80500 | 27788 ft | 426 kts | 139° |
| 2026-05-04 12:17 | 49.22938 | 9.83699 | 28121 ft | 429 kts | 139° |
| 2026-05-04 12:17 | 49.20809 | 9.86920 | 28427 ft | 431 kts | 139° |
| 2026-05-04 12:18 | 49.18671 | 9.90153 | 28768 ft | 434 kts | 139° |
| 2026-05-04 12:18 | 49.16524 | 9.93405 | 29099 ft | 436 kts | 139° |
| 2026-05-04 12:18 | 49.14363 | 9.96674 | 29430 ft | 438 kts | 139° |
| 2026-05-04 12:18 | 49.12195 | 9.99957 | 29761 ft | 440 kts | 139° |
| 2026-05-04 12:19 | 49.10018 | 10.03256 | 30064 ft | 442 kts | 139° |
| 2026-05-04 12:19 | 49.07829 | 10.06566 | 30305 ft | 444 kts | 139° |
| 2026-05-04 12:19 | 49.05622 | 10.09883 | 30533 ft | 447 kts | 140° |
| 2026-05-04 12:19 | 49.03373 | 10.13162 | 30778 ft | 448 kts | 141° |
| 2026-05-04 12:20 | 49.01086 | 10.16403 | 30993 ft | 450 kts | 141° |
| 2026-05-04 12:20 | 48.98773 | 10.19625 | 31221 ft | 452 kts | 142° |
| 2026-05-04 12:20 | 48.96451 | 10.22849 | 31530 ft | 451 kts | 142° |
| 2026-05-04 12:20 | 48.94136 | 10.26074 | 31888 ft | 452 kts | 141° |
| 2026-05-04 12:21 | 48.91827 | 10.29311 | 32226 ft | 451 kts | 141° |
| 2026-05-04 12:21 | 48.89526 | 10.32550 | 32548 ft | 451 kts | 141° |
| 2026-05-04 12:21 | 48.87226 | 10.35795 | 32869 ft | 451 kts | 141° |
| 2026-05-04 12:21 | 48.84932 | 10.39036 | 33197 ft | 451 kts | 141° |
| 2026-05-04 12:22 | 48.82636 | 10.42289 | 33521 ft | 451 kts | 140° |
| 2026-05-04 12:22 | 48.80405 | 10.45632 | 33851 ft | 451 kts | 139° |
| 2026-05-04 12:22 | 48.78963 | 10.47902 | 34054 ft | 452 kts | 137° |
| 2026-05-04 12:22 | 48.76819 | 10.51388 | 34329 ft | 452 kts | 137° |
| 2026-05-04 12:23 | 48.74698 | 10.54896 | 34586 ft | 452 kts | 136° |
| 2026-05-04 12:23 | 48.72573 | 10.58401 | 34857 ft | 451 kts | 136° |
| 2026-05-04 12:23 | 48.70435 | 10.61882 | 35127 ft | 451 kts | 137° |
| 2026-05-04 12:23 | 48.67586 | 10.66448 | 35467 ft | 450 kts | 137° |
| 2026-05-04 12:24 | 48.66130 | 10.68759 | 35633 ft | 449 kts | 137° |
| 2026-05-04 12:24 | 48.63967 | 10.72175 | 35872 ft | 449 kts | 137° |
| 2026-05-04 12:24 | 48.61806 | 10.75577 | 36100 ft | 449 kts | 137° |
| 2026-05-04 12:24 | 48.59647 | 10.78977 | 36330 ft | 449 kts | 137° |
| 2026-05-04 12:25 | 48.57494 | 10.82383 | 36539 ft | 448 kts | 137° |
| 2026-05-04 12:25 | 48.55349 | 10.85798 | 36739 ft | 448 kts | 137° |
| 2026-05-04 12:25 | 48.53212 | 10.89219 | 36934 ft | 448 kts | 136° |
| 2026-05-04 12:25 | 48.51077 | 10.92645 | 37002 ft | 448 kts | 136° |
| 2026-05-04 12:26 | 48.46843 | 10.99419 | 37002 ft | 446 kts | 137° |
| 2026-05-04 12:26 | 48.42540 | 11.06138 | 37001 ft | 445 kts | 137° |
| 2026-05-04 12:27 | 48.38213 | 11.12805 | 37000 ft | 445 kts | 137° |
| 2026-05-04 12:27 | 48.33865 | 11.19529 | 36998 ft | 445 kts | 137° |
| 2026-05-04 12:28 | 48.29551 | 11.26206 | 36988 ft | 445 kts | 137° |
| 2026-05-04 12:28 | 48.25564 | 11.33249 | 36994 ft | 450 kts | 125° |
| 2026-05-04 12:29 | 48.22423 | 11.41393 | 36991 ft | 451 kts | 123° |
| 2026-05-04 12:29 | 48.19277 | 11.49517 | 36993 ft | 451 kts | 123° |
| 2026-05-04 12:30 | 48.16123 | 11.57635 | 36992 ft | 451 kts | 123° |
| 2026-05-04 12:30 | 48.12959 | 11.65745 | 36984 ft | 451 kts | 123° |
| 2026-05-04 12:31 | 48.09790 | 11.73835 | 36987 ft | 450 kts | 123° |
| 2026-05-04 12:31 | 48.06754 | 11.81609 | 36985 ft | 450 kts | 123° |
| 2026-05-04 12:32 | 48.02052 | 11.93606 | 36973 ft | 450 kts | 123° |
| 2026-05-04 12:33 | 47.98878 | 12.01649 | 36970 ft | 449 kts | 123° |
| 2026-05-04 12:33 | 47.95700 | 12.09675 | 36977 ft | 449 kts | 123° |
| 2026-05-04 12:34 | 47.92012 | 12.17087 | 36975 ft | 443 kts | 139° |
| 2026-05-04 12:34 | 47.87352 | 12.23027 | 36967 ft | 441 kts | 143° |
| 2026-05-04 12:35 | 47.82658 | 12.28901 | 36977 ft | 441 kts | 143° |
| 2026-05-04 12:35 | 47.77963 | 12.34778 | 36968 ft | 442 kts | 143° |
| 2026-05-04 12:36 | 47.73255 | 12.40645 | 36979 ft | 441 kts | 143° |
| 2026-05-04 12:36 | 47.68552 | 12.46502 | 36982 ft | 441 kts | 143° |
| 2026-05-04 12:37 | 47.63837 | 12.52341 | 36967 ft | 442 kts | 143° |
| 2026-05-04 12:37 | 47.59107 | 12.58152 | 36980 ft | 441 kts | 143° |
| 2026-05-04 12:38 | 47.54344 | 12.63890 | 36986 ft | 441 kts | 143° |
| 2026-05-04 12:38 | 47.49584 | 12.69618 | 36988 ft | 442 kts | 143° |
| 2026-05-04 12:39 | 47.44819 | 12.75354 | 36993 ft | 441 kts | 143° |
| 2026-05-04 12:39 | 47.40071 | 12.81075 | 37007 ft | 440 kts | 143° |
| 2026-05-04 12:40 | 47.35319 | 12.86772 | 37007 ft | 440 kts | 143° |
| 2026-05-04 12:40 | 47.30596 | 12.92424 | 37022 ft | 440 kts | 143° |
| 2026-05-04 12:41 | 47.25843 | 12.98102 | 37011 ft | 440 kts | 143° |
| 2026-05-04 12:41 | 47.21087 | 13.03761 | 37027 ft | 440 kts | 143° |
| 2026-05-04 12:42 | 47.16326 | 13.09412 | 37028 ft | 440 kts | 143° |
| 2026-05-04 12:42 | 47.11562 | 13.15059 | 37040 ft | 440 kts | 143° |
| 2026-05-04 12:43 | 47.06799 | 13.20681 | 37039 ft | 440 kts | 143° |
| 2026-05-04 12:43 | 47.02029 | 13.26296 | 37037 ft | 440 kts | 143° |
| 2026-05-04 12:44 | 46.97257 | 13.31904 | 37037 ft | 440 kts | 143° |
| 2026-05-04 12:44 | 46.92478 | 13.37510 | 37040 ft | 440 kts | 143° |
| 2026-05-04 12:45 | 46.87702 | 13.43114 | 37043 ft | 440 kts | 143° |
| 2026-05-04 12:45 | 46.82922 | 13.48712 | 37048 ft | 440 kts | 143° |
| 2026-05-04 12:46 | 46.78134 | 13.54296 | 37035 ft | 441 kts | 143° |
| 2026-05-04 12:46 | 46.73340 | 13.59873 | 37038 ft | 441 kts | 143° |
| 2026-05-04 12:47 | 46.68529 | 13.65453 | 37047 ft | 443 kts | 143° |
| 2026-05-04 12:47 | 46.63693 | 13.71042 | 37056 ft | 444 kts | 144° |
| 2026-05-04 12:48 | 46.58852 | 13.76628 | 37053 ft | 444 kts | 144° |
| 2026-05-04 12:48 | 46.54006 | 13.82207 | 37069 ft | 445 kts | 144° |
| 2026-05-04 12:49 | 46.49155 | 13.87778 | 37046 ft | 446 kts | 144° |
| 2026-05-04 12:49 | 46.44322 | 13.93319 | 37071 ft | 446 kts | 143° |
| 2026-05-04 12:50 | 46.39450 | 13.98900 | 37049 ft | 446 kts | 144° |
| 2026-05-04 12:50 | 46.34569 | 14.04462 | 37068 ft | 447 kts | 144° |
| 2026-05-04 12:51 | 46.29677 | 14.10017 | 37069 ft | 448 kts | 144° |
| 2026-05-04 12:51 | 46.24773 | 14.15595 | 37080 ft | 449 kts | 144° |
| 2026-05-04 12:52 | 46.19857 | 14.21175 | 37084 ft | 450 kts | 144° |
| 2026-05-04 12:52 | 46.14925 | 14.26741 | 37091 ft | 450 kts | 144° |
| 2026-05-04 12:53 | 46.09994 | 14.32300 | 37090 ft | 450 kts | 144° |
| 2026-05-04 12:53 | 46.05064 | 14.37858 | 37083 ft | 450 kts | 144° |
| 2026-05-04 12:54 | 46.00165 | 14.43445 | 37076 ft | 450 kts | 143° |
| 2026-05-04 12:54 | 45.95266 | 14.49066 | 37066 ft | 451 kts | 143° |
| 2026-05-04 12:55 | 45.90348 | 14.54676 | 37066 ft | 452 kts | 143° |
| 2026-05-04 12:55 | 45.85419 | 14.60274 | 37073 ft | 452 kts | 144° |
| 2026-05-04 12:56 | 45.80484 | 14.65861 | 37080 ft | 452 kts | 143° |
| 2026-05-04 12:56 | 45.75552 | 14.71444 | 37088 ft | 452 kts | 143° |
| 2026-05-04 12:57 | 45.70614 | 14.77017 | 37080 ft | 452 kts | 143° |
| 2026-05-04 12:57 | 45.65673 | 14.82579 | 37090 ft | 452 kts | 143° |
| 2026-05-04 12:58 | 45.60725 | 14.88139 | 37080 ft | 452 kts | 143° |
| 2026-05-04 12:58 | 45.55777 | 14.93688 | 37074 ft | 452 kts | 143° |
| 2026-05-04 12:59 | 45.50821 | 14.99232 | 37070 ft | 453 kts | 143° |
| 2026-05-04 12:59 | 45.45902 | 15.04860 | 37080 ft | 454 kts | 141° |
| 2026-05-04 13:00 | 45.41087 | 15.10680 | 37070 ft | 454 kts | 141° |
| 2026-05-04 13:00 | 45.36285 | 15.16531 | 37079 ft | 454 kts | 141° |
| 2026-05-04 13:01 | 45.31454 | 15.22334 | 37064 ft | 455 kts | 141° |
| 2026-05-04 13:01 | 45.26602 | 15.28092 | 37078 ft | 455 kts | 141° |
| 2026-05-04 13:02 | 45.21739 | 15.33841 | 37072 ft | 455 kts | 141° |
| 2026-05-04 13:02 | 45.16887 | 15.39596 | 37084 ft | 455 kts | 141° |
| 2026-05-04 13:03 | 45.12034 | 15.45344 | 37085 ft | 455 kts | 141° |
| 2026-05-04 13:03 | 45.07166 | 15.51078 | 37077 ft | 455 kts | 141° |
| 2026-05-04 13:04 | 45.02299 | 15.56807 | 37067 ft | 456 kts | 141° |
| 2026-05-04 13:04 | 44.97452 | 15.62503 | 37061 ft | 456 kts | 141° |
| 2026-05-04 13:05 | 44.92567 | 15.68219 | 37065 ft | 457 kts | 141° |
| 2026-05-04 13:05 | 44.87671 | 15.73935 | 37071 ft | 457 kts | 141° |
| 2026-05-04 13:06 | 44.82772 | 15.79637 | 37073 ft | 457 kts | 141° |
| 2026-05-04 13:06 | 44.77862 | 15.85348 | 37063 ft | 458 kts | 141° |
| 2026-05-04 13:07 | 44.72940 | 15.91070 | 37068 ft | 459 kts | 141° |
| 2026-05-04 13:07 | 44.67974 | 15.96719 | 37070 ft | 459 kts | 147° |
| 2026-05-04 13:08 | 44.63427 | 16.00503 | 37069 ft | 457 kts | 152° |
| 2026-05-04 13:08 | 44.57889 | 16.04901 | 37075 ft | 457 kts | 152° |
| 2026-05-04 13:09 | 44.52358 | 16.09327 | 37074 ft | 458 kts | 152° |
| 2026-05-04 13:09 | 44.46810 | 16.13749 | 37084 ft | 459 kts | 152° |
| 2026-05-04 13:10 | 44.41240 | 16.18157 | 37085 ft | 460 kts | 152° |
| 2026-05-04 13:10 | 44.35670 | 16.22562 | 37098 ft | 460 kts | 152° |
| 2026-05-04 13:11 | 44.30097 | 16.26961 | 37110 ft | 460 kts | 151° |
| 2026-05-04 13:11 | 44.24522 | 16.31358 | 37107 ft | 461 kts | 151° |
| 2026-05-04 13:12 | 44.18933 | 16.35753 | 37095 ft | 461 kts | 152° |
| 2026-05-04 13:12 | 44.13337 | 16.40146 | 37098 ft | 462 kts | 152° |
| 2026-05-04 13:13 | 44.07733 | 16.44529 | 37108 ft | 463 kts | 152° |
| 2026-05-04 13:13 | 44.02108 | 16.48895 | 37122 ft | 463 kts | 153° |
| 2026-05-04 13:14 | 43.96347 | 16.52928 | 37101 ft | 464 kts | 156° |
| 2026-05-04 13:14 | 43.90484 | 16.56712 | 36560 ft | 467 kts | 156° |
| 2026-05-04 13:14 | 43.87506 | 16.58629 | 35020 ft | 481 kts | 156° |
| 2026-05-04 13:15 | 43.84452 | 16.60620 | 34156 ft | 486 kts | 156° |
| 2026-05-04 13:15 | 43.81410 | 16.62631 | 33156 ft | 482 kts | 155° |
| 2026-05-04 13:15 | 43.78407 | 16.64640 | 32107 ft | 478 kts | 155° |
| 2026-05-04 13:15 | 43.75436 | 16.66641 | 31620 ft | 471 kts | 155° |
| 2026-05-04 13:16 | 43.72503 | 16.68615 | 31035 ft | 467 kts | 155° |
| 2026-05-04 13:16 | 43.69592 | 16.70566 | 30479 ft | 463 kts | 154° |
| 2026-05-04 13:16 | 43.66697 | 16.72496 | 29895 ft | 460 kts | 155° |
| 2026-05-04 13:16 | 43.63831 | 16.74397 | 29302 ft | 455 kts | 155° |
| 2026-05-04 13:17 | 43.60999 | 16.76268 | 28627 ft | 449 kts | 155° |
| 2026-05-04 13:17 | 43.58200 | 16.78117 | 28031 ft | 445 kts | 155° |
| 2026-05-04 13:17 | 43.55424 | 16.79954 | 27539 ft | 439 kts | 154° |
| 2026-05-04 13:17 | 43.52676 | 16.81772 | 26967 ft | 436 kts | 155° |
| 2026-05-04 13:18 | 43.49955 | 16.83569 | 26488 ft | 431 kts | 155° |
| 2026-05-04 13:18 | 43.47268 | 16.85343 | 25994 ft | 426 kts | 154° |
| 2026-05-04 13:18 | 43.44612 | 16.87097 | 25502 ft | 421 kts | 155° |
| 2026-05-04 13:18 | 43.41981 | 16.88827 | 24995 ft | 417 kts | 155° |
| 2026-05-04 13:19 | 43.39368 | 16.90543 | 24502 ft | 414 kts | 155° |
| 2026-05-04 13:19 | 43.36774 | 16.92243 | 23996 ft | 412 kts | 155° |
| 2026-05-04 13:19 | 43.34193 | 16.93932 | 23441 ft | 410 kts | 155° |
| 2026-05-04 13:19 | 43.31629 | 16.95610 | 22913 ft | 406 kts | 154° |
| 2026-05-04 13:20 | 43.29094 | 16.97268 | 22413 ft | 402 kts | 154° |
| 2026-05-04 13:20 | 43.26583 | 16.98911 | 21901 ft | 398 kts | 154° |
| 2026-05-04 13:20 | 43.24095 | 17.00538 | 21402 ft | 394 kts | 154° |
| 2026-05-04 13:20 | 43.21627 | 17.02149 | 20905 ft | 392 kts | 154° |
| 2026-05-04 13:21 | 43.19175 | 17.03747 | 20416 ft | 389 kts | 154° |
| 2026-05-04 13:21 | 43.16751 | 17.05333 | 19960 ft | 385 kts | 153° |
| 2026-05-04 13:21 | 43.14495 | 17.07271 | 19511 ft | 381 kts | 140° |
| 2026-05-04 13:21 | 43.12610 | 17.09789 | 19078 ft | 376 kts | 128° |
| 2026-05-04 13:22 | 43.11123 | 17.12710 | 18621 ft | 372 kts | 121° |
| 2026-05-04 13:22 | 43.09729 | 17.15678 | 18113 ft | 371 kts | 121° |
| 2026-05-04 13:22 | 43.08344 | 17.18621 | 17729 ft | 365 kts | 121° |
| 2026-05-04 13:22 | 43.06966 | 17.21537 | 17254 ft | 363 kts | 122° |
| 2026-05-04 13:23 | 43.05596 | 17.24421 | 16775 ft | 361 kts | 122° |
| 2026-05-04 13:23 | 43.04234 | 17.27282 | 16342 ft | 358 kts | 121° |
| 2026-05-04 13:23 | 43.02882 | 17.30117 | 15941 ft | 354 kts | 122° |
| 2026-05-04 13:23 | 43.01537 | 17.32936 | 15508 ft | 352 kts | 122° |
| 2026-05-04 13:24 | 43.00204 | 17.35730 | 15061 ft | 350 kts | 122° |
| 2026-05-04 13:24 | 42.98884 | 17.38500 | 14612 ft | 348 kts | 121° |
| 2026-05-04 13:24 | 42.97589 | 17.41219 | 14227 ft | 345 kts | 120° |
| 2026-05-04 13:25 | 42.94966 | 17.46726 | 13252 ft | 343 kts | 121° |
| 2026-05-04 13:25 | 42.93672 | 17.49431 | 12896 ft | 337 kts | 121° |
| 2026-05-04 13:25 | 42.92394 | 17.52101 | 12424 ft | 336 kts | 121° |
| 2026-05-04 13:25 | 42.91134 | 17.54737 | 11988 ft | 334 kts | 121° |
| 2026-05-04 13:26 | 42.89865 | 17.57387 | 11523 ft | 333 kts | 120° |
| 2026-05-04 13:26 | 42.88591 | 17.60045 | 11201 ft | 328 kts | 121° |
| 2026-05-04 13:26 | 42.87355 | 17.62616 | 10783 ft | 328 kts | 121° |
| 2026-05-04 13:26 | 42.86100 | 17.65212 | 10375 ft | 327 kts | 121° |
| 2026-05-04 13:27 | 42.84868 | 17.67765 | 10209 ft | 318 kts | 120° |
| 2026-05-04 13:27 | 42.83666 | 17.70257 | 10105 ft | 305 kts | 121° |
| 2026-05-04 13:27 | 42.82517 | 17.72633 | 9912 ft | 297 kts | 121° |
| 2026-05-04 13:27 | 42.81387 | 17.74975 | 9588 ft | 294 kts | 121° |
| 2026-05-04 13:28 | 42.80269 | 17.77298 | 9229 ft | 290 kts | 121° |
| 2026-05-04 13:28 | 42.79163 | 17.79592 | 8678 ft | 291 kts | 121° |
| 2026-05-04 13:28 | 42.78060 | 17.81865 | 8157 ft | 285 kts | 123° |
| 2026-05-04 13:28 | 42.76817 | 17.83956 | 7472 ft | 284 kts | 128° |
| 2026-05-04 13:29 | 42.75545 | 17.85995 | 6847 ft | 281 kts | 129° |
| 2026-05-04 13:29 | 42.74326 | 17.87945 | 6646 ft | 261 kts | 128° |
| 2026-05-04 13:29 | 42.73138 | 17.89847 | 6006 ft | 269 kts | 128° |
| 2026-05-04 13:29 | 42.71915 | 17.91815 | 5292 ft | 275 kts | 129° |
| 2026-05-04 13:30 | 42.70689 | 17.93783 | 4874 ft | 274 kts | 129° |
| 2026-05-04 13:30 | 42.69465 | 17.95744 | 4702 ft | 262 kts | 129° |
| 2026-05-04 13:30 | 42.68319 | 17.97576 | 4605 ft | 251 kts | 129° |
| 2026-05-04 13:30 | 42.67203 | 17.99370 | 4496 ft | 247 kts | 128° |
| 2026-05-04 13:31 | 42.66221 | 18.01285 | 4333 ft | 246 kts | 120° |
| 2026-05-04 13:31 | 42.65397 | 18.03317 | 4034 ft | 245 kts | 117° |
| 2026-05-04 13:31 | 42.64609 | 18.05355 | 3746 ft | 242 kts | 118° |
| 2026-05-04 13:31 | 42.63825 | 18.07356 | 3442 ft | 239 kts | 118° |
| 2026-05-04 13:32 | 42.63047 | 18.09330 | 3104 ft | 232 kts | 119° |
| 2026-05-04 13:32 | 42.62315 | 18.11191 | 2808 ft | 221 kts | 119° |
| 2026-05-04 13:32 | 42.61610 | 18.12979 | 2532 ft | 209 kts | 120° |
| 2026-05-04 13:32 | 42.60948 | 18.14655 | 2290 ft | 193 kts | 120° |
| 2026-05-04 13:33 | 42.60330 | 18.16224 | 2021 ft | 179 kts | 121° |
| 2026-05-04 13:33 | 42.59766 | 18.17656 | 1781 ft | 163 kts | 120° |
| 2026-05-04 13:33 | 42.59259 | 18.18937 | 1563 ft | 151 kts | 120° |
| 2026-05-04 13:33 | 42.58768 | 18.20177 | 1365 ft | 148 kts | 119° |
| 2026-05-04 13:34 | 42.58282 | 18.21411 | 1135 ft | 149 kts | 119° |
| 2026-05-04 13:34 | 42.57794 | 18.22644 | 996 ft | 148 kts | 121° |
| 2026-05-04 13:34 | 42.57311 | 18.23864 | 752 ft | 145 kts | 121° |
| 2026-05-04 13:34 | 42.56844 | 18.25057 | 538 ft | 140 kts | 121° |
| 2026-05-04 13:35 | 42.56427 | 18.26094 | 534 ft | 106 kts | 118° |
| 2026-05-04 13:35 | 42.56003 | 18.27164 | 533 ft | 31 kts | 117° |
| 2026-05-04 13:35 | 42.55898 | 18.27339 | 531 ft | 23 kts | 164° |
| 2026-05-04 13:36 | 42.55778 | 18.27323 | 534 ft | 15 kts | 222° |
| 2026-05-04 13:36 | 42.55794 | 18.27201 | 534 ft | 15 kts | 300° |
| 2026-05-04 13:36 | 42.55849 | 18.27071 | 534 ft | 17 kts | 300° |
| 2026-05-04 13:36 | 42.55908 | 18.26922 | 534 ft | 19 kts | 298° |
| 2026-05-04 13:37 | 42.55973 | 18.26756 | 534 ft | 21 kts | 298° |
| 2026-05-04 13:37 | 42.56044 | 18.26579 | 534 ft | 18 kts | 298° |
| 2026-05-04 13:37 | 42.56064 | 18.26502 | 534 ft | 4 kts | 247° |
| 2026-05-04 13:37 | 42.56054 | 18.26489 | 534 ft | 3 kts | 221° |
| 2026-05-04 13:38 | 42.56028 | 18.26468 | 534 ft | 3 kts | 210° |
| 2026-05-04 13:38 | 42.56024 | 18.26465 | 534 ft | 0 kts | 210° |